sensor_id;sensor_type;location;lat;lon;timestamp;P1;durP1;ratioP1;P2;durP2;ratioP2
38465;SDS011;24244;51.950;5.902;2022-09-01T00:02:52;3.47;;;1.00;;
38465;SDS011;24244;51.950;5.902;2022-09-01T00:05:18;4.35;;;1.00;;
38465;SDS011;24244;51.950;5.902;2022-09-01T00:07:44;4.70;;;1.00;;
38465;SDS011;24244;51.950;5.902;2022-09-01T00:10:09;2.45;;;0.90;;
38465;SDS011;24244;51.950;5.902;2022-09-01T00:12:35;3.15;;;1.10;;
38465;SDS011;24244;51.950;5.902;2022-09-01T00:15:04;3.08;;;1.30;;
38465;SDS011;24244;51.950;5.902;2022-09-01T00:17:32;3.83;;;1.05;;
38465;SDS011;24244;51.950;5.902;2022-09-01T00:19:58;3.15;;;1.17;;
38465;SDS011;24244;51.950;5.902;2022-09-01T00:22:24;4.43;;;1.10;;
38465;SDS011;24244;51.950;5.902;2022-09-01T00:24:49;3.92;;;1.20;;
38465;SDS011;24244;51.950;5.902;2022-09-01T00:27:15;3.72;;;1.20;;
38465;SDS011;24244;51.950;5.902;2022-09-01T00:29:41;3.08;;;1.00;;
38465;SDS011;24244;51.950;5.902;2022-09-01T00:32:08;3.63;;;1.00;;
38465;SDS011;24244;51.950;5.902;2022-09-01T00:34:33;2.60;;;1.05;;
38465;SDS011;24244;51.950;5.902;2022-09-01T00:36:59;2.72;;;0.90;;
38465;SDS011;24244;51.950;5.902;2022-09-01T00:39:24;1.90;;;0.88;;
38465;SDS011;24244;51.950;5.902;2022-09-01T00:41:50;3.70;;;1.10;;
38465;SDS011;24244;51.950;5.902;2022-09-01T00:44:17;3.95;;;1.33;;
38465;SDS011;24244;51.950;5.902;2022-09-01T00:46:47;2.70;;;1.10;;
38465;SDS011;24244;51.950;5.902;2022-09-01T00:49:16;4.18;;;1.17;;
38465;SDS011;24244;51.950;5.902;2022-09-01T00:51:45;3.28;;;1.17;;
38465;SDS011;24244;51.950;5.902;2022-09-01T00:54:14;4.78;;;1.33;;
38465;SDS011;24244;51.950;5.902;2022-09-01T00:56:42;3.78;;;1.20;;
38465;SDS011;24244;51.950;5.902;2022-09-01T00:59:10;3.03;;;1.15;;
38465;SDS011;24244;51.950;5.902;2022-09-01T01:01:37;4.85;;;1.30;;
38465;SDS011;24244;51.950;5.902;2022-09-01T01:04:04;3.92;;;1.20;;
38465;SDS011;24244;51.950;5.902;2022-09-01T01:06:33;5.05;;;1.17;;
38465;SDS011;24244;51.950;5.902;2022-09-01T01:08:58;4.18;;;1.20;;
38465;SDS011;24244;51.950;5.902;2022-09-01T01:11:26;5.10;;;1.50;;
38465;SDS011;24244;51.950;5.902;2022-09-01T01:13:54;3.20;;;1.20;;
38465;SDS011;24244;51.950;5.902;2022-09-01T01:16:21;3.67;;;1.13;;
38465;SDS011;24244;51.950;5.902;2022-09-01T01:18:48;3.95;;;1.17;;
38465;SDS011;24244;51.950;5.902;2022-09-01T01:21:17;3.85;;;1.25;;
38465;SDS011;24244;51.950;5.902;2022-09-01T01:24:05;3.35;;;1.25;;
38465;SDS011;24244;51.950;5.902;2022-09-01T01:26:38;3.15;;;1.20;;
38465;SDS011;24244;51.950;5.902;2022-09-01T01:29:03;5.07;;;1.45;;
38465;SDS011;24244;51.950;5.902;2022-09-01T01:31:30;4.78;;;1.40;;
38465;SDS011;24244;51.950;5.902;2022-09-01T01:33:56;5.25;;;1.38;;
38465;SDS011;24244;51.950;5.902;2022-09-01T01:36:24;5.85;;;1.30;;
38465;SDS011;24244;51.950;5.902;2022-09-01T01:38:56;3.67;;;1.25;;
38465;SDS011;24244;51.950;5.902;2022-09-01T01:41:26;5.53;;;1.33;;
38465;SDS011;24244;51.950;5.902;2022-09-01T01:43:53;4.93;;;1.42;;
38465;SDS011;24244;51.950;5.902;2022-09-01T01:46:18;4.13;;;1.35;;
38465;SDS011;24244;51.950;5.902;2022-09-01T01:48:45;3.88;;;1.25;;
38465;SDS011;24244;51.950;5.902;2022-09-01T01:51:11;5.43;;;1.50;;
38465;SDS011;24244;51.950;5.902;2022-09-01T01:53:38;5.93;;;1.48;;
38465;SDS011;24244;51.950;5.902;2022-09-01T01:56:04;3.80;;;1.25;;
38465;SDS011;24244;51.950;5.902;2022-09-01T01:58:30;4.43;;;1.30;;
38465;SDS011;24244;51.950;5.902;2022-09-01T02:00:58;5.00;;;1.48;;
38465;SDS011;24244;51.950;5.902;2022-09-01T02:03:25;6.28;;;1.55;;
38465;SDS011;24244;51.950;5.902;2022-09-01T02:05:55;6.28;;;1.65;;
38465;SDS011;24244;51.950;5.902;2022-09-01T02:08:21;3.88;;;1.30;;
38465;SDS011;24244;51.950;5.902;2022-09-01T02:10:51;4.93;;;1.30;;
38465;SDS011;24244;51.950;5.902;2022-09-01T02:13:18;4.83;;;1.60;;
38465;SDS011;24244;51.950;5.902;2022-09-01T02:15:47;4.35;;;1.50;;
38465;SDS011;24244;51.950;5.902;2022-09-01T02:18:15;5.75;;;1.45;;
38465;SDS011;24244;51.950;5.902;2022-09-01T02:20:42;4.93;;;1.38;;
38465;SDS011;24244;51.950;5.902;2022-09-01T02:23:08;4.05;;;1.40;;
38465;SDS011;24244;51.950;5.902;2022-09-01T02:25:36;4.97;;;1.73;;
38465;SDS011;24244;51.950;5.902;2022-09-01T02:28:03;3.33;;;1.30;;
38465;SDS011;24244;51.950;5.902;2022-09-01T02:30:29;4.85;;;1.20;;
38465;SDS011;24244;51.950;5.902;2022-09-01T02:32:57;5.30;;;1.30;;
38465;SDS011;24244;51.950;5.902;2022-09-01T02:35:24;4.78;;;1.40;;
38465;SDS011;24244;51.950;5.902;2022-09-01T02:37:55;5.72;;;1.33;;
38465;SDS011;24244;51.950;5.902;2022-09-01T02:40:25;3.78;;;1.15;;
38465;SDS011;24244;51.950;5.902;2022-09-01T02:42:50;4.78;;;1.30;;
38465;SDS011;24244;51.950;5.902;2022-09-01T02:45:19;3.80;;;1.30;;
38465;SDS011;24244;51.950;5.902;2022-09-01T02:47:44;3.92;;;1.40;;
38465;SDS011;24244;51.950;5.902;2022-09-01T02:50:12;4.47;;;1.25;;
38465;SDS011;24244;51.950;5.902;2022-09-01T02:55:08;3.17;;;1.10;;
38465;SDS011;24244;51.950;5.902;2022-09-01T02:57:34;3.70;;;1.40;;
38465;SDS011;24244;51.950;5.902;2022-09-01T03:00:00;4.18;;;1.30;;
38465;SDS011;24244;51.950;5.902;2022-09-01T03:02:27;6.22;;;1.40;;
38465;SDS011;24244;51.950;5.902;2022-09-01T03:04:53;3.35;;;1.20;;
38465;SDS011;24244;51.950;5.902;2022-09-01T03:07:20;5.20;;;1.20;;
38465;SDS011;24244;51.950;5.902;2022-09-01T03:09:52;3.53;;;1.38;;
38465;SDS011;24244;51.950;5.902;2022-09-01T03:12:17;3.88;;;1.30;;
38465;SDS011;24244;51.950;5.902;2022-09-01T03:14:44;5.25;;;1.50;;
38465;SDS011;24244;51.950;5.902;2022-09-01T03:17:09;3.50;;;1.20;;
38465;SDS011;24244;51.950;5.902;2022-09-01T03:19:36;3.25;;;1.10;;
38465;SDS011;24244;51.950;5.902;2022-09-01T03:22:06;4.65;;;1.50;;
38465;SDS011;24244;51.950;5.902;2022-09-01T03:24:31;4.60;;;1.48;;
38465;SDS011;24244;51.950;5.902;2022-09-01T03:26:58;4.70;;;1.58;;
38465;SDS011;24244;51.950;5.902;2022-09-01T03:29:25;5.18;;;1.50;;
38465;SDS011;24244;51.950;5.902;2022-09-01T03:31:50;5.60;;;1.60;;
38465;SDS011;24244;51.950;5.902;2022-09-01T03:34:16;5.22;;;1.45;;
38465;SDS011;24244;51.950;5.902;2022-09-01T03:36:45;6.88;;;1.60;;
38465;SDS011;24244;51.950;5.902;2022-09-01T03:39:15;4.82;;;1.50;;
38465;SDS011;24244;51.950;5.902;2022-09-01T03:41:41;3.03;;;1.20;;
38465;SDS011;24244;51.950;5.902;2022-09-01T03:44:08;3.60;;;1.30;;
38465;SDS011;24244;51.950;5.902;2022-09-01T03:46:36;4.28;;;1.30;;
38465;SDS011;24244;51.950;5.902;2022-09-01T03:49:02;5.60;;;1.52;;
38465;SDS011;24244;51.950;5.902;2022-09-01T03:51:30;4.53;;;1.55;;
38465;SDS011;24244;51.950;5.902;2022-09-01T03:53:56;4.03;;;1.50;;
38465;SDS011;24244;51.950;5.902;2022-09-01T03:56:23;3.90;;;1.30;;
38465;SDS011;24244;51.950;5.902;2022-09-01T03:58:51;4.68;;;1.38;;
38465;SDS011;24244;51.950;5.902;2022-09-01T04:01:19;4.47;;;1.27;;
38465;SDS011;24244;51.950;5.902;2022-09-01T04:03:44;4.35;;;1.33;;
38465;SDS011;24244;51.950;5.902;2022-09-01T04:06:13;4.68;;;1.27;;
38465;SDS011;24244;51.950;5.902;2022-09-01T04:08:39;4.30;;;1.48;;
38465;SDS011;24244;51.950;5.902;2022-09-01T04:11:09;4.50;;;1.50;;
38465;SDS011;24244;51.950;5.902;2022-09-01T04:13:38;6.00;;;1.30;;
38465;SDS011;24244;51.950;5.902;2022-09-01T04:16:05;3.72;;;1.10;;
38465;SDS011;24244;51.950;5.902;2022-09-01T04:19:01;3.13;;;1.15;;
38465;SDS011;24244;51.950;5.902;2022-09-01T04:21:39;5.85;;;1.25;;
38465;SDS011;24244;51.950;5.902;2022-09-01T04:24:05;3.50;;;1.17;;
38465;SDS011;24244;51.950;5.902;2022-09-01T04:26:33;4.50;;;1.30;;
38465;SDS011;24244;51.950;5.902;2022-09-01T04:28:58;4.78;;;1.33;;
38465;SDS011;24244;51.950;5.902;2022-09-01T04:31:24;4.50;;;1.58;;
38465;SDS011;24244;51.950;5.902;2022-09-01T04:33:50;4.00;;;1.42;;
38465;SDS011;24244;51.950;5.902;2022-09-01T04:36:18;5.13;;;1.52;;
38465;SDS011;24244;51.950;5.902;2022-09-01T04:38:46;4.65;;;1.30;;
38465;SDS011;24244;51.950;5.902;2022-09-01T04:41:14;4.07;;;1.50;;
38465;SDS011;24244;51.950;5.902;2022-09-01T04:43:41;4.15;;;1.42;;
38465;SDS011;24244;51.950;5.902;2022-09-01T04:46:07;4.22;;;1.20;;
38465;SDS011;24244;51.950;5.902;2022-09-01T04:48:33;4.78;;;1.30;;
38465;SDS011;24244;51.950;5.902;2022-09-01T04:50:58;4.80;;;1.35;;
38465;SDS011;24244;51.950;5.902;2022-09-01T04:53:25;3.22;;;1.20;;
38465;SDS011;24244;51.950;5.902;2022-09-01T04:55:51;4.28;;;1.20;;
38465;SDS011;24244;51.950;5.902;2022-09-01T04:58:19;4.38;;;1.40;;
38465;SDS011;24244;51.950;5.902;2022-09-01T05:00:46;3.60;;;1.30;;
38465;SDS011;24244;51.950;5.902;2022-09-01T05:03:16;3.85;;;1.50;;
38465;SDS011;24244;51.950;5.902;2022-09-01T05:05:45;4.28;;;1.30;;
38465;SDS011;24244;51.950;5.902;2022-09-01T05:08:12;4.03;;;1.58;;
38465;SDS011;24244;51.950;5.902;2022-09-01T05:10:42;3.60;;;1.20;;
38465;SDS011;24244;51.950;5.902;2022-09-01T05:13:09;4.32;;;1.50;;
38465;SDS011;24244;51.950;5.902;2022-09-01T05:15:37;3.03;;;1.17;;
38465;SDS011;24244;51.950;5.902;2022-09-01T05:18:03;4.55;;;1.40;;
38465;SDS011;24244;51.950;5.902;2022-09-01T05:20:35;4.35;;;1.20;;
38465;SDS011;24244;51.950;5.902;2022-09-01T05:23:02;3.40;;;1.30;;
38465;SDS011;24244;51.950;5.902;2022-09-01T05:25:29;4.97;;;1.30;;
38465;SDS011;24244;51.950;5.902;2022-09-01T05:27:56;3.40;;;1.40;;
38465;SDS011;24244;51.950;5.902;2022-09-01T05:30:21;4.80;;;1.30;;
38465;SDS011;24244;51.950;5.902;2022-09-01T05:32:48;3.78;;;1.40;;
38465;SDS011;24244;51.950;5.902;2022-09-01T05:35:15;2.92;;;1.25;;
38465;SDS011;24244;51.950;5.902;2022-09-01T05:37:40;3.92;;;1.30;;
38465;SDS011;24244;51.950;5.902;2022-09-01T05:40:07;3.47;;;1.30;;
38465;SDS011;24244;51.950;5.902;2022-09-01T05:42:40;4.65;;;1.40;;
38465;SDS011;24244;51.950;5.902;2022-09-01T05:45:08;3.45;;;1.30;;
38465;SDS011;24244;51.950;5.902;2022-09-01T05:47:35;5.00;;;1.63;;
38465;SDS011;24244;51.950;5.902;2022-09-01T05:50:01;5.03;;;1.50;;
38465;SDS011;24244;51.950;5.902;2022-09-01T05:52:27;5.35;;;1.30;;
38465;SDS011;24244;51.950;5.902;2022-09-01T05:54:57;3.50;;;1.33;;
38465;SDS011;24244;51.950;5.902;2022-09-01T05:57:24;3.42;;;1.30;;
38465;SDS011;24244;51.950;5.902;2022-09-01T05:59:49;4.30;;;1.40;;
38465;SDS011;24244;51.950;5.902;2022-09-01T06:02:19;4.60;;;1.40;;
38465;SDS011;24244;51.950;5.902;2022-09-01T06:04:45;4.15;;;1.30;;
38465;SDS011;24244;51.950;5.902;2022-09-01T06:07:11;4.22;;;1.23;;
38465;SDS011;24244;51.950;5.902;2022-09-01T06:09:38;4.45;;;1.35;;
38465;SDS011;24244;51.950;5.902;2022-09-01T06:12:05;5.57;;;1.52;;
38465;SDS011;24244;51.950;5.902;2022-09-01T06:14:33;4.18;;;1.33;;
38465;SDS011;24244;51.950;5.902;2022-09-01T06:16:59;3.38;;;1.20;;
38465;SDS011;24244;51.950;5.902;2022-09-01T06:19:26;4.45;;;1.48;;
38465;SDS011;24244;51.950;5.902;2022-09-01T06:21:52;5.80;;;1.50;;
38465;SDS011;24244;51.950;5.902;2022-09-01T06:24:17;3.75;;;1.45;;
38465;SDS011;24244;51.950;5.902;2022-09-01T06:26:43;3.58;;;1.20;;
38465;SDS011;24244;51.950;5.902;2022-09-01T06:29:10;4.25;;;1.38;;
38465;SDS011;24244;51.950;5.902;2022-09-01T06:31:39;4.10;;;1.40;;
38465;SDS011;24244;51.950;5.902;2022-09-01T06:34:07;4.05;;;1.38;;
38465;SDS011;24244;51.950;5.902;2022-09-01T06:36:39;5.63;;;1.45;;
38465;SDS011;24244;51.950;5.902;2022-09-01T06:39:05;4.72;;;1.50;;
38465;SDS011;24244;51.950;5.902;2022-09-01T06:41:31;5.80;;;1.67;;
38465;SDS011;24244;51.950;5.902;2022-09-01T06:43:57;4.88;;;1.80;;
38465;SDS011;24244;51.950;5.902;2022-09-01T06:46:26;6.97;;;1.60;;
38465;SDS011;24244;51.950;5.902;2022-09-01T06:48:53;5.03;;;1.50;;
38465;SDS011;24244;51.950;5.902;2022-09-01T06:51:23;4.78;;;1.70;;
38465;SDS011;24244;51.950;5.902;2022-09-01T06:53:54;5.72;;;1.55;;
38465;SDS011;24244;51.950;5.902;2022-09-01T06:56:24;4.32;;;1.23;;
38465;SDS011;24244;51.950;5.902;2022-09-01T06:58:52;3.60;;;1.30;;
38465;SDS011;24244;51.950;5.902;2022-09-01T07:01:19;3.97;;;1.52;;
38465;SDS011;24244;51.950;5.902;2022-09-01T07:03:47;3.65;;;1.42;;
38465;SDS011;24244;51.950;5.902;2022-09-01T07:06:18;4.28;;;1.30;;
38465;SDS011;24244;51.950;5.902;2022-09-01T07:08:51;4.70;;;1.40;;
38465;SDS011;24244;51.950;5.902;2022-09-01T07:11:21;3.88;;;1.23;;
38465;SDS011;24244;51.950;5.902;2022-09-01T07:13:52;3.25;;;1.30;;
38465;SDS011;24244;51.950;5.902;2022-09-01T07:16:19;3.25;;;1.25;;
38465;SDS011;24244;51.950;5.902;2022-09-01T07:18:48;3.17;;;1.20;;
38465;SDS011;24244;51.950;5.902;2022-09-01T07:21:13;4.25;;;1.38;;
38465;SDS011;24244;51.950;5.902;2022-09-01T07:23:39;5.38;;;1.50;;
38465;SDS011;24244;51.950;5.902;2022-09-01T07:26:07;3.75;;;1.30;;
38465;SDS011;24244;51.950;5.902;2022-09-01T07:28:35;4.25;;;1.30;;
38465;SDS011;24244;51.950;5.902;2022-09-01T07:31:01;4.60;;;1.42;;
38465;SDS011;24244;51.950;5.902;2022-09-01T07:33:29;3.75;;;1.40;;
38465;SDS011;24244;51.950;5.902;2022-09-01T07:35:56;4.00;;;1.23;;
38465;SDS011;24244;51.950;5.902;2022-09-01T07:38:22;4.70;;;1.27;;
38465;SDS011;24244;51.950;5.902;2022-09-01T07:40:48;4.25;;;1.30;;
38465;SDS011;24244;51.950;5.902;2022-09-01T07:43:18;4.53;;;1.63;;
38465;SDS011;24244;51.950;5.902;2022-09-01T07:45:48;4.50;;;1.42;;
38465;SDS011;24244;51.950;5.902;2022-09-01T07:50:44;4.68;;;1.30;;
38465;SDS011;24244;51.950;5.902;2022-09-01T07:53:12;6.63;;;1.50;;
38465;SDS011;24244;51.950;5.902;2022-09-01T07:55:39;5.28;;;1.48;;
38465;SDS011;24244;51.950;5.902;2022-09-01T08:00:33;3.40;;;1.13;;
38465;SDS011;24244;51.950;5.902;2022-09-01T08:03:00;4.13;;;1.30;;
38465;SDS011;24244;51.950;5.902;2022-09-01T08:05:26;4.75;;;1.30;;
38465;SDS011;24244;51.950;5.902;2022-09-01T08:07:52;3.65;;;1.20;;
38465;SDS011;24244;51.950;5.902;2022-09-01T08:10:19;4.68;;;1.50;;
38465;SDS011;24244;51.950;5.902;2022-09-01T08:12:44;7.05;;;1.50;;
38465;SDS011;24244;51.950;5.902;2022-09-01T08:15:10;3.35;;;1.27;;
38465;SDS011;24244;51.950;5.902;2022-09-01T08:17:36;4.00;;;1.25;;
38465;SDS011;24244;51.950;5.902;2022-09-01T08:20:04;3.05;;;1.05;;
38465;SDS011;24244;51.950;5.902;2022-09-01T08:22:34;4.55;;;1.30;;
38465;SDS011;24244;51.950;5.902;2022-09-01T08:25:01;4.43;;;1.20;;
38465;SDS011;24244;51.950;5.902;2022-09-01T08:27:27;5.15;;;1.40;;
38465;SDS011;24244;51.950;5.902;2022-09-01T08:29:53;5.57;;;1.50;;
38465;SDS011;24244;51.950;5.902;2022-09-01T08:32:19;5.38;;;1.13;;
38465;SDS011;24244;51.950;5.902;2022-09-01T08:34:45;4.53;;;1.25;;
38465;SDS011;24244;51.950;5.902;2022-09-01T08:37:12;4.20;;;1.33;;
38465;SDS011;24244;51.950;5.902;2022-09-01T08:39:37;4.10;;;1.50;;
38465;SDS011;24244;51.950;5.902;2022-09-01T08:42:04;2.97;;;1.10;;
38465;SDS011;24244;51.950;5.902;2022-09-01T08:44:37;4.53;;;1.20;;
38465;SDS011;24244;51.950;5.902;2022-09-01T08:47:10;3.95;;;1.10;;
38465;SDS011;24244;51.950;5.902;2022-09-01T08:49:39;3.60;;;0.90;;
38465;SDS011;24244;51.950;5.902;2022-09-01T08:52:13;4.13;;;1.20;;
38465;SDS011;24244;51.950;5.902;2022-09-01T08:54:47;4.00;;;1.02;;
38465;SDS011;24244;51.950;5.902;2022-09-01T08:57:15;3.20;;;1.05;;
38465;SDS011;24244;51.950;5.902;2022-09-01T08:59:43;2.97;;;1.10;;
38465;SDS011;24244;51.950;5.902;2022-09-01T09:02:14;7.35;;;1.33;;
38465;SDS011;24244;51.950;5.902;2022-09-01T09:04:52;4.35;;;1.02;;
38465;SDS011;24244;51.950;5.902;2022-09-01T09:07:31;4.03;;;1.00;;
38465;SDS011;24244;51.950;5.902;2022-09-01T09:10:05;3.17;;;1.20;;
38465;SDS011;24244;51.950;5.902;2022-09-01T09:12:38;6.22;;;1.08;;
38465;SDS011;24244;51.950;5.902;2022-09-01T09:15:19;1.90;;;0.93;;
38465;SDS011;24244;51.950;5.902;2022-09-01T09:17:52;3.40;;;0.77;;
38465;SDS011;24244;51.950;5.902;2022-09-01T09:20:24;3.55;;;1.00;;
38465;SDS011;24244;51.950;5.902;2022-09-01T09:22:51;2.70;;;0.90;;
38465;SDS011;24244;51.950;5.902;2022-09-01T09:25:18;3.70;;;0.85;;
38465;SDS011;24244;51.950;5.902;2022-09-01T09:27:45;2.85;;;0.77;;
38465;SDS011;24244;51.950;5.902;2022-09-01T09:30:14;3.63;;;1.10;;
38465;SDS011;24244;51.950;5.902;2022-09-01T09:32:46;4.22;;;1.00;;
38465;SDS011;24244;51.950;5.902;2022-09-01T09:35:19;2.03;;;0.80;;
38465;SDS011;24244;51.950;5.902;2022-09-01T09:37:52;3.28;;;0.90;;
38465;SDS011;24244;51.950;5.902;2022-09-01T09:40:18;4.45;;;1.10;;
38465;SDS011;24244;51.950;5.902;2022-09-01T09:42:59;2.83;;;0.95;;
38465;SDS011;24244;51.950;5.902;2022-09-01T09:45:29;3.30;;;0.70;;
38465;SDS011;24244;51.950;5.902;2022-09-01T09:47:59;4.00;;;0.90;;
38465;SDS011;24244;51.950;5.902;2022-09-01T09:50:29;3.55;;;0.88;;
38465;SDS011;24244;51.950;5.902;2022-09-01T09:55:51;2.50;;;0.80;;
38465;SDS011;24244;51.950;5.902;2022-09-01T09:58:20;3.30;;;0.90;;
38465;SDS011;24244;51.950;5.902;2022-09-01T10:01:00;2.42;;;0.70;;
38465;SDS011;24244;51.950;5.902;2022-09-01T10:03:35;2.67;;;0.70;;
38465;SDS011;24244;51.950;5.902;2022-09-01T10:06:04;2.42;;;0.75;;
38465;SDS011;24244;51.950;5.902;2022-09-01T10:08:37;2.28;;;0.80;;
38465;SDS011;24244;51.950;5.902;2022-09-01T10:11:08;2.72;;;0.60;;
38465;SDS011;24244;51.950;5.902;2022-09-01T10:13:35;2.05;;;0.63;;
38465;SDS011;24244;51.950;5.902;2022-09-01T10:16:01;1.67;;;0.60;;
38465;SDS011;24244;51.950;5.902;2022-09-01T10:20:56;3.03;;;0.80;;
38465;SDS011;24244;51.950;5.902;2022-09-01T10:23:25;2.05;;;0.70;;
38465;SDS011;24244;51.950;5.902;2022-09-01T10:25:53;2.88;;;0.70;;
38465;SDS011;24244;51.950;5.902;2022-09-01T10:28:25;2.20;;;0.60;;
38465;SDS011;24244;51.950;5.902;2022-09-01T10:30:54;2.38;;;0.80;;
38465;SDS011;24244;51.950;5.902;2022-09-01T10:33:21;1.20;;;0.43;;
38465;SDS011;24244;51.950;5.902;2022-09-01T10:35:47;1.50;;;0.52;;
38465;SDS011;24244;51.950;5.902;2022-09-01T10:38:15;3.08;;;0.60;;
38465;SDS011;24244;51.950;5.902;2022-09-01T10:40:44;2.80;;;0.73;;
38465;SDS011;24244;51.950;5.902;2022-09-01T10:43:32;2.03;;;0.68;;
38465;SDS011;24244;51.950;5.902;2022-09-01T10:46:06;2.95;;;0.80;;
38465;SDS011;24244;51.950;5.902;2022-09-01T10:49:02;1.65;;;0.60;;
38465;SDS011;24244;51.950;5.902;2022-09-01T10:51:44;0.90;;;0.40;;
38465;SDS011;24244;51.950;5.902;2022-09-01T10:57:24;1.63;;;0.50;;
38465;SDS011;24244;51.950;5.902;2022-09-01T11:09:16;3.22;;;0.95;;
38465;SDS011;24244;51.950;5.902;2022-09-01T11:11:46;1.65;;;0.60;;
38465;SDS011;24244;51.950;5.902;2022-09-01T11:14:19;2.05;;;0.63;;
38465;SDS011;24244;51.950;5.902;2022-09-01T11:19:42;1.33;;;0.60;;
38465;SDS011;24244;51.950;5.902;2022-09-01T11:22:26;1.65;;;0.60;;
38465;SDS011;24244;51.950;5.902;2022-09-01T11:25:09;2.08;;;0.70;;
38465;SDS011;24244;51.950;5.902;2022-09-01T11:27:56;2.92;;;0.70;;
38465;SDS011;24244;51.950;5.902;2022-09-01T11:30:24;2.20;;;0.50;;
38465;SDS011;24244;51.950;5.902;2022-09-01T11:33:01;2.35;;;0.70;;
38465;SDS011;24244;51.950;5.902;2022-09-01T11:35:37;2.47;;;0.63;;
38465;SDS011;24244;51.950;5.902;2022-09-01T11:38:04;2.45;;;0.60;;
38465;SDS011;24244;51.950;5.902;2022-09-01T11:40:32;2.25;;;0.60;;
38465;SDS011;24244;51.950;5.902;2022-09-01T11:43:01;1.73;;;0.52;;
38465;SDS011;24244;51.950;5.902;2022-09-01T11:45:31;3.03;;;0.60;;
38465;SDS011;24244;51.950;5.902;2022-09-01T11:48:04;3.90;;;0.70;;
38465;SDS011;24244;51.950;5.902;2022-09-01T11:50:34;3.35;;;0.90;;
38465;SDS011;24244;51.950;5.902;2022-09-01T11:53:02;3.35;;;0.73;;
38465;SDS011;24244;51.950;5.902;2022-09-01T11:55:32;4.70;;;0.60;;
38465;SDS011;24244;51.950;5.902;2022-09-01T11:58:00;2.65;;;0.70;;
38465;SDS011;24244;51.950;5.902;2022-09-01T12:00:27;2.53;;;0.75;;
38465;SDS011;24244;51.950;5.902;2022-09-01T12:05:28;2.80;;;0.55;;
38465;SDS011;24244;51.950;5.902;2022-09-01T12:07:57;2.15;;;0.70;;
38465;SDS011;24244;51.950;5.902;2022-09-01T12:10:29;2.00;;;0.60;;
38465;SDS011;24244;51.950;5.902;2022-09-01T12:13:01;1.98;;;0.63;;
38465;SDS011;24244;51.950;5.902;2022-09-01T12:15:31;2.33;;;0.70;;
38465;SDS011;24244;51.950;5.902;2022-09-01T12:20:36;2.80;;;0.70;;
38465;SDS011;24244;51.950;5.902;2022-09-01T12:23:03;4.05;;;0.90;;
38465;SDS011;24244;51.950;5.902;2022-09-01T12:25:43;3.17;;;0.77;;
38465;SDS011;24244;51.950;5.902;2022-09-01T12:28:09;2.75;;;0.80;;
38465;SDS011;24244;51.950;5.902;2022-09-01T12:30:35;1.92;;;0.68;;
38465;SDS011;24244;51.950;5.902;2022-09-01T12:33:05;2.65;;;0.50;;
38465;SDS011;24244;51.950;5.902;2022-09-01T12:35:31;4.63;;;0.95;;
38465;SDS011;24244;51.950;5.902;2022-09-01T12:40:47;2.25;;;0.75;;
38465;SDS011;24244;51.950;5.902;2022-09-01T12:43:25;2.92;;;0.85;;
38465;SDS011;24244;51.950;5.902;2022-09-01T12:45:55;3.33;;;0.82;;
38465;SDS011;24244;51.950;5.902;2022-09-01T12:48:25;3.30;;;0.88;;
38465;SDS011;24244;51.950;5.902;2022-09-01T12:50:54;1.65;;;0.68;;
38465;SDS011;24244;51.950;5.902;2022-09-01T12:53:22;3.15;;;0.80;;
38465;SDS011;24244;51.950;5.902;2022-09-01T12:56:01;1.90;;;0.60;;
38465;SDS011;24244;51.950;5.902;2022-09-01T12:58:50;3.65;;;0.80;;
38465;SDS011;24244;51.950;5.902;2022-09-01T13:01:30;3.15;;;0.70;;
38465;SDS011;24244;51.950;5.902;2022-09-01T13:04:15;4.53;;;0.73;;
38465;SDS011;24244;51.950;5.902;2022-09-01T13:06:49;2.10;;;0.75;;
38465;SDS011;24244;51.950;5.902;2022-09-01T13:09:16;4.03;;;0.80;;
38465;SDS011;24244;51.950;5.902;2022-09-01T13:11:43;3.08;;;0.90;;
38465;SDS011;24244;51.950;5.902;2022-09-01T13:14:11;1.95;;;0.73;;
38465;SDS011;24244;51.950;5.902;2022-09-01T13:16:37;2.92;;;0.75;;
38465;SDS011;24244;51.950;5.902;2022-09-01T13:19:03;1.58;;;0.52;;
38465;SDS011;24244;51.950;5.902;2022-09-01T13:21:31;2.22;;;0.70;;
38465;SDS011;24244;51.950;5.902;2022-09-01T13:23:58;3.28;;;0.50;;
38465;SDS011;24244;51.950;5.902;2022-09-01T13:26:24;2.33;;;0.70;;
38465;SDS011;24244;51.950;5.902;2022-09-01T13:28:51;3.03;;;0.80;;
38465;SDS011;24244;51.950;5.902;2022-09-01T13:31:17;2.67;;;0.60;;
38465;SDS011;24244;51.950;5.902;2022-09-01T13:33:43;3.63;;;0.93;;
38465;SDS011;24244;51.950;5.902;2022-09-01T13:36:09;3.88;;;0.90;;
38465;SDS011;24244;51.950;5.902;2022-09-01T13:38:34;2.05;;;0.70;;
38465;SDS011;24244;51.950;5.902;2022-09-01T13:41:00;3.28;;;0.70;;
38465;SDS011;24244;51.950;5.902;2022-09-01T13:43:28;2.53;;;0.77;;
38465;SDS011;24244;51.950;5.902;2022-09-01T13:45:56;2.95;;;0.70;;
38465;SDS011;24244;51.950;5.902;2022-09-01T13:48:22;3.95;;;0.70;;
38465;SDS011;24244;51.950;5.902;2022-09-01T13:50:48;2.53;;;0.90;;
38465;SDS011;24244;51.950;5.902;2022-09-01T13:53:16;3.10;;;0.75;;
38465;SDS011;24244;51.950;5.902;2022-09-01T13:55:43;2.28;;;0.73;;
38465;SDS011;24244;51.950;5.902;2022-09-01T13:58:09;2.65;;;0.70;;
38465;SDS011;24244;51.950;5.902;2022-09-01T14:00:35;2.55;;;0.85;;
38465;SDS011;24244;51.950;5.902;2022-09-01T14:03:04;2.57;;;0.90;;
38465;SDS011;24244;51.950;5.902;2022-09-01T14:05:32;4.40;;;0.85;;
38465;SDS011;24244;51.950;5.902;2022-09-01T14:07:59;3.58;;;0.80;;
38465;SDS011;24244;51.950;5.902;2022-09-01T14:10:26;3.17;;;0.70;;
38465;SDS011;24244;51.950;5.902;2022-09-01T14:12:53;3.00;;;0.82;;
38465;SDS011;24244;51.950;5.902;2022-09-01T14:15:19;2.25;;;0.70;;
38465;SDS011;24244;51.950;5.902;2022-09-01T14:17:46;3.33;;;0.90;;
38465;SDS011;24244;51.950;5.902;2022-09-01T14:20:16;3.47;;;1.05;;
38465;SDS011;24244;51.950;5.902;2022-09-01T14:22:43;3.78;;;0.90;;
38465;SDS011;24244;51.950;5.902;2022-09-01T14:25:10;2.40;;;0.75;;
38465;SDS011;24244;51.950;5.902;2022-09-01T14:27:36;1.85;;;0.50;;
38465;SDS011;24244;51.950;5.902;2022-09-01T14:30:02;2.30;;;0.60;;
38465;SDS011;24244;51.950;5.902;2022-09-01T14:32:28;2.45;;;0.90;;
38465;SDS011;24244;51.950;5.902;2022-09-01T14:34:54;3.45;;;0.90;;
38465;SDS011;24244;51.950;5.902;2022-09-01T14:37:22;2.33;;;0.70;;
38465;SDS011;24244;51.950;5.902;2022-09-01T14:39:48;2.10;;;0.70;;
38465;SDS011;24244;51.950;5.902;2022-09-01T14:42:14;2.45;;;0.90;;
38465;SDS011;24244;51.950;5.902;2022-09-01T14:44:39;2.35;;;0.80;;
38465;SDS011;24244;51.950;5.902;2022-09-01T14:47:06;2.10;;;0.70;;
38465;SDS011;24244;51.950;5.902;2022-09-01T14:49:31;3.03;;;0.80;;
38465;SDS011;24244;51.950;5.902;2022-09-01T14:52:00;2.95;;;0.90;;
38465;SDS011;24244;51.950;5.902;2022-09-01T14:56:55;2.10;;;0.70;;
38465;SDS011;24244;51.950;5.902;2022-09-01T14:59:21;2.15;;;0.80;;
38465;SDS011;24244;51.950;5.902;2022-09-01T15:01:46;3.25;;;0.77;;
38465;SDS011;24244;51.950;5.902;2022-09-01T15:04:12;3.30;;;0.93;;
38465;SDS011;24244;51.950;5.902;2022-09-01T15:06:37;3.72;;;1.02;;
38465;SDS011;24244;51.950;5.902;2022-09-01T15:09:03;2.72;;;0.82;;
38465;SDS011;24244;51.950;5.902;2022-09-01T15:11:30;3.60;;;0.90;;
38465;SDS011;24244;51.950;5.902;2022-09-01T15:13:55;2.78;;;0.80;;
38465;SDS011;24244;51.950;5.902;2022-09-01T15:16:22;3.88;;;0.90;;
38465;SDS011;24244;51.950;5.902;2022-09-01T15:18:49;4.00;;;0.93;;
38465;SDS011;24244;51.950;5.902;2022-09-01T15:21:19;2.47;;;0.68;;
38465;SDS011;24244;51.950;5.902;2022-09-01T15:23:45;3.00;;;0.70;;
38465;SDS011;24244;51.950;5.902;2022-09-01T15:26:12;2.58;;;0.80;;
38465;SDS011;24244;51.950;5.902;2022-09-01T15:28:41;2.38;;;0.63;;
38465;SDS011;24244;51.950;5.902;2022-09-01T15:31:07;2.85;;;0.90;;
38465;SDS011;24244;51.950;5.902;2022-09-01T15:33:32;3.63;;;0.70;;
38465;SDS011;24244;51.950;5.902;2022-09-01T15:35:58;3.95;;;1.10;;